Skip Navigation LinksHome page > Tools > METAR decoder Skip Navigation Links

METAR decoder

Settings

METAR

Chicago O'Hare Intl, Chicago

For information only: do not use for flight planning or navigation.
Latest weather
Observation time Thursday, October 30, 2014 11:51 AM CDT
Local time Thursday, October 30, 2014 12:41 PM CDT
Flight conditions Visual Meteorological Conditions
Winds
Wind direction Southwest (230°)
Winds variable from 200° to 260°
Wind speed 9 mph
Visibility 10 mi.
Sky condition
Ceiling 12,000 ft. broken clouds
Cloud layer broken clouds 12,000 ft.
Cloud layer overcast 25,000 ft.
Temperature 49°F
Dewpoint 34°F
Altimeter 30.11 in.Hg
Derived measurements
Relative humidity 56%
Wind chill 45°F
Density altitude -118 ft.
Sea-level pressure 30.12 in.Hg
Remarks
Automated weather observing station with precipitation discriminator.
METAR KORD 301651Z 23008KT 200V260 10SM BKN120 OVC250 09/01 A3011 RMK AO2 SLP200 T00940011

InnerDrive.Weather 4.0.5399.0 Release CLR 4.0.30319.34014
Copyright ©2014 Inner Drive Technology. All rights reserved. Portions Copyright ©1986-2014 David Braverman.

Find weather

Site navigation


Skip Navigation Links

Place info

Page info

PayPal - The safer, easier way to pay online!

Return home.

Copyright ©2014 Inner Drive Technology. Purveyors of fine, hand-crafted computer software. Page printed 2014-10-30T17:41:28 UTC.